Huvudsida
METAR-TAF:

METAR-TAF

Flygplatser :

Minangkabau International Airport

Padang, Indonesien

latitud: 00-47-12S, longitud: 100-16-50E, höjd: 5 m

METAR: saknas

Tid: 15:06 (08:06 UTC)

Väderprognos

Denna rapport gjordes för 3 timmar och 6 minuter sedan, klockan 05:00 UTC
Prognos gäller från 23 kl. 06 UTC till 24 kl. 06 UTC
Vind 4 kt från väst/nordväst
Sikt 10 km eller mer
Spridda moln på en höjd av 1900 ft
Temporärt
från 23 kl. 07 UTC till 23 kl. 08 UTC
Vind 8 kt från väst
Sikt: 2000 m
Brutna moln på en höjd av 1600 ft
regn
Blir
från 23 kl. 12 UTC till 23 kl. 14 UTC
Vind 3 kt från nordost
Sikt: 8000 m
Brutna moln på en höjd av 2000 ft

TAF: WIEE 230500Z 2306/2406 30004KT 9999 SCT019 TEMPO 2307/2308 28008KT 2000 RA BKN016 BECMG 2312/2314 05003KT 8000 BKN020

Aktuella väderrapporter och prognoser från 4000 flygplatser (METAR- och TAF-rapporter).

De tillgängliga stationerna syns som gula och röda prickar på kartan.

För musen över prickarna för att se namnen på stationerna.

Klicka sedan för att få väderrapporter och prognoser.

För att ändra kartan: Klicka på de gröna knapparna med ett svart kors på för att zooma in; den gröna knappen med ett streck på för att zooma ut; eller på de gröna pilarna för angränsande kartor.


METAR-TAF: